Wetterdaten: Woche 20.10.14 - 26.10.14 (KW43)
Datum Zeit Temp. A. Feuchte A. Luftdruck Regen Wind Richtung Taupunkt Windchill Windben
20.10.2014 00:00 10,1 C 83 % 1019,9 hPa 0,0 l/m 0,0 km/h N 7,3 C 10,1 C 0,0 km/h
20.10.2014 01:00 9,6 C 83 % 1019,3 hPa 0,0 l/m 0,0 km/h N 6,8 C 9,6 C 0,0 km/h
20.10.2014 02:00 9,1 C 82 % 1019,0 hPa 0,0 l/m 0,0 km/h N 6,2 C 9,1 C 0,0 km/h
20.10.2014 03:00 9,0 C 82 % 1018,5 hPa 0,0 l/m 0,0 km/h N 6,1 C 9,0 C 0,0 km/h
20.10.2014 04:00 8,7 C 82 % 1018,3 hPa 0,3 l/m 0,0 km/h N 5,7 C 8,7 C 0,0 km/h
20.10.2014 05:00 8,8 C 81 % 1018,2 hPa 0,0 l/m 0,0 km/h N 5,7 C 8,8 C 0,8 km/h
20.10.2014 06:00 10,1 C 79 % 1018,2 hPa 0,0 l/m 0,5 km/h N 6,7 C 10,1 C 6,4 km/h
20.10.2014 07:00 15,7 C 74 % 1017,8 hPa 0,0 l/m 5,3 km/h N 11,0 C 15,4 C 19,7 km/h
20.10.2014 08:00 19,6 C 62 % 1018,0 hPa 0,0 l/m 8,9 km/h N 12,2 C 18,6 C 25,8 km/h
20.10.2014 09:00 19,5 C 63 % 1018,4 hPa 0,0 l/m 8,1 km/h N 12,3 C 18,8 C 28,2 km/h
20.10.2014 10:00 19,8 C 64 % 1018,1 hPa 0,0 l/m 5,4 km/h N 12,8 C 19,7 C 20,5 km/h
20.10.2014 11:00 20,6 C 62 % 1017,7 hPa 0,0 l/m 6,5 km/h N 13,2 C 20,3 C 21,7 km/h
20.10.2014 12:00 21,1 C 63 % 1017,5 hPa 0,0 l/m 3,9 km/h N 13,8 C 21,1 C 19,3 km/h
20.10.2014 13:00 21,4 C 63 % 1016,9 hPa 0,0 l/m 2,1 km/h N 14,1 C 21,4 C 13,7 km/h
20.10.2014 14:00 22,0 C 63 % 1016,3 hPa 0,0 l/m 1,8 km/h N 14,6 C 22,0 C 10,9 km/h
20.10.2014 15:00 21,6 C 64 % 1015,9 hPa 0,0 l/m 3,7 km/h N 14,4 C 21,6 C 12,5 km/h
20.10.2014 16:00 21,6 C 63 % 1015,5 hPa 0,0 l/m 5,1 km/h N 14,4 C 21,6 C 15,7 km/h
20.10.2014 17:00 21,5 C 63 % 1015,0 hPa 0,0 l/m 3,4 km/h N 14,1 C 21,5 C 15,3 km/h
20.10.2014 18:00 20,8 C 66 % 1014,7 hPa 0,0 l/m 2,5 km/h N 14,1 C 20,8 C 11,7 km/h
20.10.2014 19:00 19,7 C 69 % 1014,4 hPa 0,0 l/m 0,0 km/h N 13,9 C 19,7 C 1,2 km/h
20.10.2014 20:00 18,1 C 75 % 1014,2 hPa 0,0 l/m 0,0 km/h N 13,6 C 18,1 C 0,0 km/h
20.10.2014 21:00 17,1 C 81 % 1014,3 hPa 0,0 l/m 0,4 km/h N 13,8 C 17,1 C 1,6 km/h
20.10.2014 22:00 16,9 C 84 % 1014,8 hPa 2,3 l/m 0,8 km/h N 14,1 C 16,9 C 3,2 km/h
20.10.2014 23:00 16,2 C 84 % 1014,4 hPa 1,3 l/m 0,1 km/h N 13,5 C 16,2 C 1,6 km/h
21.10.2014 00:00 15,6 C 83 % 1013,5 hPa 0,5 l/m 0,0 km/h N 12,8 C 15,6 C 1,2 km/h
21.10.2014 01:00 15,2 C 83 % 1013,2 hPa 0,0 l/m 0,0 km/h N 12,3 C 15,2 C 0,0 km/h
21.10.2014 02:00 14,9 C 82 % 1013,0 hPa 0,3 l/m 0,0 km/h N 11,8 C 14,9 C 0,0 km/h
21.10.2014 03:00 14,9 C 81 % 1012,5 hPa 0,5 l/m 1,1 km/h N 11,7 C 14,9 C 6,0 km/h
21.10.2014 04:00 14,6 C 82 % 1012,2 hPa 0,0 l/m 0,2 km/h N 11,6 C 14,6 C 3,2 km/h
21.10.2014 05:00 14,5 C 82 % 1012,2 hPa 0,8 l/m 2,5 km/h N 11,4 C 14,5 C 11,3 km/h
21.10.2014 06:00 14,6 C 84 % 1012,0 hPa 1,3 l/m 2,3 km/h N 11,8 C 14,6 C 10,0 km/h
21.10.2014 07:00 14,1 C 83 % 1011,9 hPa 0,0 l/m 2,3 km/h N 11,2 C 14,1 C 10,5 km/h
21.10.2014 08:00 14,2 C 84 % 1012,4 hPa 0,0 l/m 6,0 km/h N 11,5 C 14,2 C 16,5 km/h
21.10.2014 09:00 14,2 C 85 % 1012,6 hPa 0,0 l/m 2,5 km/h N 11,7 C 14,2 C 8,4 km/h
21.10.2014 10:00 14,5 C 84 % 1012,5 hPa 0,0 l/m 1,7 km/h N 11,8 C 14,5 C 7,2 km/h
21.10.2014 11:00 16,0 C 78 % 1012,4 hPa 0,0 l/m 7,1 km/h N 12,1 C 15,5 C 21,3 km/h
21.10.2014 12:00 16,9 C 73 % 1011,5 hPa 0,0 l/m 7,6 km/h N 12,0 C 16,3 C 22,5 km/h
21.10.2014 13:00 17,5 C 69 % 1010,6 hPa 0,0 l/m 7,8 km/h N 11,6 C 16,7 C 22,5 km/h
21.10.2014 14:00 18,0 C 68 % 1010,0 hPa 0,0 l/m 5,8 km/h N 11,9 C 17,8 C 16,9 km/h
21.10.2014 15:00 18,5 C 63 % 1009,2 hPa 0,0 l/m 3,8 km/h N 11,3 C 18,5 C 15,7 km/h
21.10.2014 16:00 17,8 C 67 % 1008,7 hPa 0,0 l/m 3,0 km/h N 11,5 C 17,8 C 13,3 km/h
21.10.2014 17:00 17,0 C 73 % 1007,7 hPa 0,0 l/m 0,4 km/h N 12,1 C 17,0 C 3,2 km/h
21.10.2014 18:00 15,3 C 77 % 1007,3 hPa 0,0 l/m 0,0 km/h N 11,4 C 15,3 C 1,2 km/h
21.10.2014 19:00 13,9 C 82 % 1006,7 hPa 0,0 l/m 0,0 km/h N 10,9 C 13,9 C 0,0 km/h
21.10.2014 20:00 13,7 C 84 % 1005,9 hPa 0,3 l/m 0,0 km/h N 11,1 C 13,7 C 0,0 km/h
21.10.2014 21:00 13,8 C 84 % 1004,6 hPa 0,0 l/m 0,0 km/h N 11,1 C 13,8 C 1,2 km/h
21.10.2014 22:00 14,1 C 83 % 1003,8 hPa 0,0 l/m 1,2 km/h N 11,2 C 14,1 C 6,0 km/h
21.10.2014 23:00 14,2 C 83 % 1002,6 hPa 0,0 l/m 0,4 km/h N 11,3 C 14,2 C 4,4 km/h
22.10.2014 00:00 14,3 C 84 % 1001,9 hPa 0,3 l/m 2,7 km/h N 11,6 C 14,3 C 10,1 km/h
22.10.2014 01:00 10,5 C 80 % 1003,8 hPa 4,2 l/m 21,2 km/h N 7,1 C 3,6 C 53,5 km/h
22.10.2014 02:00 10,5 C 73 % 1003,3 hPa 0,0 l/m 27,4 km/h N 5,8 C 2,0 C 61,2 km/h
22.10.2014 03:00 10,7 C 69 % 1003,4 hPa 0,0 l/m 25,0 km/h N 5,1 C 2,7 C 54,3 km/h
22.10.2014 04:00 10,4 C 69 % 1004,8 hPa 0,0 l/m 21,4 km/h N 4,9 C 3,4 C 53,5 km/h
22.10.2014 05:00 10,0 C 68 % 1005,6 hPa 0,0 l/m 18,0 km/h N 4,3 C 4,0 C 43,4 km/h
22.10.2014 06:00 9,6 C 71 % 1005,9 hPa 0,0 l/m 15,6 km/h N 4,6 C 4,4 C 36,2 km/h
22.10.2014 07:00 9,4 C 71 % 1006,3 hPa 0,0 l/m 14,3 km/h N 4,4 C 4,7 C 38,6 km/h
22.10.2014 08:00 9,1 C 70 % 1006,9 hPa 0,0 l/m 11,9 km/h N 3,9 C 5,6 C 30,6 km/h
22.10.2014 09:00 8,9 C 72 % 1006,8 hPa 0,0 l/m 12,2 km/h N 4,2 C 5,2 C 35,8 km/h
22.10.2014 10:00 8,9 C 72 % 1006,4 hPa 0,0 l/m 13,6 km/h N 4,1 C 4,5 C 34,2 km/h
22.10.2014 11:00 9,0 C 71 % 1006,7 hPa 0,0 l/m 13,7 km/h N 4,1 C 4,6 C 34,2 km/h
22.10.2014 12:00 9,3 C 72 % 1006,7 hPa 0,0 l/m 14,2 km/h N 4,5 C 4,6 C 35,4 km/h
22.10.2014 13:00 9,4 C 71 % 1006,0 hPa 0,0 l/m 17,1 km/h N 4,4 C 3,6 C 40,6 km/h
22.10.2014 14:00 8,2 C 79 % 1006,0 hPa 0,5 l/m 17,2 km/h N 4,7 C 2,0 C 43,5 km/h
22.10.2014 15:00 7,5 C 80 % 1006,7 hPa 0,3 l/m 13,4 km/h N 4,2 C 3,0 C 37,4 km/h
22.10.2014 16:00 7,3 C 77 % 1007,2 hPa 0,0 l/m 13,9 km/h N 3,5 C 2,4 C 33,8 km/h
22.10.2014 17:00 7,6 C 77 % 1007,2 hPa 0,3 l/m 12,9 km/h N 3,9 C 3,3 C 32,6 km/h
22.10.2014 18:00 6,9 C 83 % 1007,5 hPa 2,9 l/m 11,2 km/h N 4,3 C 3,5 C 32,6 km/h
22.10.2014 19:00 6,8 C 84 % 1007,4 hPa 2,9 l/m 16,9 km/h N 4,2 C 0,4 C 42,2 km/h
22.10.2014 20:00 6,4 C 84 % 1007,1 hPa 0,5 l/m 17,9 km/h N 3,8 C -0,4 C 41,8 km/h
22.10.2014 21:00 6,5 C 82 % 1007,2 hPa 0,5 l/m 19,0 km/h N 3,7 C -0,8 C 44,3 km/h
22.10.2014 22:00 6,5 C 82 % 1007,4 hPa 0,3 l/m 15,1 km/h N 3,7 C 0,9 C 35,4 km/h
22.10.2014 23:00 6,4 C 83 % 1007,3 hPa 0,0 l/m 12,3 km/h N 3,7 C 2,2 C 34,6 km/h
23.10.2014 00:00 6,5 C 82 % 1007,4 hPa 0,0 l/m 8,6 km/h N 3,6 C 4,7 C 29,8 km/h
23.10.2014 01:00 6,4 C 81 % 1006,8 hPa 0,0 l/m 14,2 km/h N 3,4 C 1,3 C 35,4 km/h
23.10.2014 02:00 6,4 C 81 % 1006,5 hPa 0,0 l/m 13,1 km/h N 3,4 C 1,7 C 32,2 km/h
23.10.2014 03:00 6,1 C 83 % 1006,9 hPa 0,0 l/m 9,2 km/h N 3,4 C 3,8 C 25,7 km/h
23.10.2014 04:00 6,3 C 84 % 1006,5 hPa 0,3 l/m 8,6 km/h N 3,8 C 4,6 C 24,5 km/h
23.10.2014 05:00 6,6 C 84 % 1006,5 hPa 0,0 l/m 8,2 km/h N 4,1 C 5,2 C 23,7 km/h
23.10.2014 06:00 7,2 C 84 % 1006,7 hPa 0,0 l/m 7,0 km/h N 4,7 C 6,6 C 20,1 km/h
23.10.2014 07:00 7,6 C 85 % 1007,3 hPa 0,0 l/m 4,5 km/h N 5,2 C 7,6 C 16,9 km/h
23.10.2014 08:00 8,0 C 85 % 1008,4 hPa 0,0 l/m 2,4 km/h N 5,6 C 8,0 C 9,3 km/h
23.10.2014 09:00 8,4 C 85 % 1009,3 hPa 0,0 l/m 3,1 km/h N 6,0 C 8,4 C 11,7 km/h
23.10.2014 10:00 9,0 C 84 % 1010,3 hPa 0,0 l/m 5,0 km/h N 6,5 C 9,0 C 19,3 km/h
23.10.2014 11:00 9,7 C 85 % 1011,0 hPa 0,0 l/m 6,9 km/h N 7,3 C 9,4 C 22,5 km/h
23.10.2014 12:00 9,6 C 85 % 1011,5 hPa 0,8 l/m 8,1 km/h N 7,1 C 8,3 C 26,2 km/h
23.10.2014 13:00 9,0 C 85 % 1011,6 hPa 0,3 l/m 7,8 km/h N 6,6 C 7,9 C 25,3 km/h
23.10.2014 14:00 9,1 C 85 % 1012,4 hPa 0,0 l/m 7,9 km/h N 6,7 C 8,1 C 27,4 km/h
23.10.2014 15:00 9,2 C 84 % 1013,0 hPa 0,8 l/m 7,3 km/h N 6,7 C 8,4 C 24,1 km/h
23.10.2014 16:00 8,8 C 85 % 1013,9 hPa 0,8 l/m 8,3 km/h N 6,4 C 7,4 C 26,2 km/h
23.10.2014 17:00 8,6 C 85 % 1014,5 hPa 0,8 l/m 7,2 km/h N 6,3 C 7,9 C 23,7 km/h
23.10.2014 18:00 8,4 C 85 % 1015,5 hPa 0,8 l/m 5,0 km/h N 6,1 C 8,3 C 20,5 km/h
23.10.2014 19:00 8,5 C 85 % 1016,2 hPa 0,5 l/m 7,2 km/h N 6,1 C 7,7 C 30,2 km/h
23.10.2014 20:00 8,8 C 84 % 1016,8 hPa 0,0 l/m 6,2 km/h N 6,2 C 8,4 C 21,3 km/h
23.10.2014 21:00 9,1 C 83 % 1016,8 hPa 0,0 l/m 7,1 km/h N 6,3 C 8,4 C 26,1 km/h
23.10.2014 22:00 9,3 C 82 % 1017,1 hPa 0,0 l/m 8,8 km/h N 6,3 C 7,6 C 25,3 km/h
23.10.2014 23:00 9,3 C 82 % 1017,4 hPa 0,0 l/m 9,0 km/h N 6,3 C 7,5 C 28,5 km/h
24.10.2014 00:00 9,1 C 81 % 1017,5 hPa 0,3 l/m 10,8 km/h N 6,0 C 6,1 C 32,2 km/h
24.10.2014 01:00 9,1 C 80 % 1017,7 hPa 0,0 l/m 9,5 km/h N 5,8 C 6,9 C 27,4 km/h
24.10.2014 02:00 9,1 C 80 % 1018,0 hPa 0,0 l/m 9,3 km/h N 5,8 C 7,0 C 32,2 km/h
24.10.2014 03:00 8,9 C 80 % 1018,1 hPa 0,0 l/m 9,4 km/h N 5,6 C 6,8 C 29,4 km/h
24.10.2014 04:00 8,8 C 80 % 1018,2 hPa 0,0 l/m 9,2 km/h N 5,6 C 6,8 C 29,0 km/h
24.10.2014 05:00 8,8 C 80 % 1018,3 hPa 0,0 l/m 8,4 km/h N 5,5 C 7,3 C 25,3 km/h
24.10.2014 06:00 8,8 C 80 % 1018,5 hPa 0,0 l/m 7,9 km/h N 5,6 C 7,8 C 23,6 km/h
24.10.2014 07:00 8,8 C 79 % 1019,0 hPa 0,0 l/m 8,1 km/h N 5,4 C 7,5 C 25,8 km/h
24.10.2014 08:00 8,9 C 79 % 1019,5 hPa 0,0 l/m 8,3 km/h N 5,5 C 7,6 C 29,4 km/h
24.10.2014 09:00 8,8 C 79 % 1020,1 hPa 0,0 l/m 8,8 km/h N 5,2 C 7,1 C 29,0 km/h
24.10.2014 10:00 8,9 C 79 % 1020,5 hPa 0,0 l/m 7,7 km/h N 5,3 C 7,9 C 23,7 km/h
24.10.2014 11:00 9,1 C 78 % 1020,6 hPa 0,0 l/m 8,1 km/h N 5,5 C 7,8 C 24,5 km/h
24.10.2014 12:00 9,6 C 77 % 1020,5 hPa 0,0 l/m 7,6 km/h N 5,7 C 8,7 C 25,7 km/h
24.10.2014 13:00 10,1 C 76 % 1020,0 hPa 0,0 l/m 7,7 km/h N 6,0 C 9,2 C 23,7 km/h
24.10.2014 14:00 10,5 C 75 % 1019,7 hPa 0,0 l/m 5,6 km/h N 6,2 C 10,5 C 22,1 km/h
24.10.2014 15:00 10,9 C 72 % 1019,6 hPa 0,0 l/m 6,0 km/h N 6,0 C 10,9 C 20,9 km/h
24.10.2014 16:00 11,0 C 71 % 1019,5 hPa 0,0 l/m 5,0 km/h N 5,9 C 10,9 C 20,1 km/h
24.10.2014 17:00 10,5 C 71 % 1019,8 hPa 0,0 l/m 4,4 km/h N 5,5 C 10,5 C 16,9 km/h
24.10.2014 18:00 9,7 C 72 % 1020,4 hPa 0,0 l/m 3,5 km/h N 4,9 C 9,7 C 11,7 km/h
24.10.2014 19:00 8,7 C 75 % 1020,9 hPa 0,0 l/m 5,4 km/h N 4,4 C 8,7 C 18,5 km/h
24.10.2014 20:00 7,6 C 78 % 1021,5 hPa 0,0 l/m 3,8 km/h N 4,0 C 7,6 C 14,5 km/h
24.10.2014 21:00 6,5 C 77 % 1022,5 hPa 0,0 l/m 3,8 km/h N 2,8 C 6,5 C 13,7 km/h
24.10.2014 22:00 6,1 C 79 % 1022,9 hPa 0,0 l/m 3,9 km/h N 2,6 C 6,1 C 12,9 km/h
24.10.2014 23:00 5,6 C 79 % 1023,3 hPa 0,0 l/m 1,7 km/h N 2,3 C 5,6 C 6,8 km/h
25.10.2014 00:00 5,3 C 80 % 1023,3 hPa 0,0 l/m 1,1 km/h N 2,1 C 5,3 C 6,4 km/h
25.10.2014 01:00 5,4 C 80 % 1023,3 hPa 0,0 l/m 0,4 km/h N 2,3 C 5,4 C 3,6 km/h
25.10.2014 02:00 5,4 C 81 % 1023,2 hPa 0,0 l/m 0,1 km/h N 2,4 C 5,4 C 2,4 km/h
25.10.2014 03:00 5,3 C 82 % 1022,9 hPa 0,0 l/m 0,0 km/h N 2,5 C 5,3 C 0,0 km/h
25.10.2014 04:00 5,0 C 83 % 1022,8 hPa 0,0 l/m 0,0 km/h N 2,3 C 5,0 C 0,0 km/h
25.10.2014 05:00 4,4 C 84 % 1023,1 hPa 0,0 l/m 0,1 km/h N 1,9 C 4,4 C 1,2 km/h
25.10.2014 06:00 3,7 C 84 % 1023,1 hPa 0,0 l/m 0,0 km/h N 1,3 C 3,7 C 0,0 km/h
25.10.2014 07:00 3,2 C 85 % 1023,4 hPa 0,0 l/m 0,0 km/h N 0,9 C 3,2 C 0,0 km/h
25.10.2014 08:00 3,5 C 86 % 1024,1 hPa 0,0 l/m 0,0 km/h N 1,4 C 3,5 C 0,0 km/h
25.10.2014 09:00 4,9 C 86 % 1024,3 hPa 0,0 l/m 0,7 km/h N 2,7 C 4,9 C 4,8 km/h
25.10.2014 10:00 6,0 C 84 % 1024,6 hPa 0,0 l/m 1,1 km/h N 3,5 C 6,0 C 6,0 km/h
25.10.2014 11:00 7,6 C 80 % 1024,6 hPa 0,0 l/m 1,0 km/h N 4,4 C 7,6 C 6,8 km/h
25.10.2014 12:00 8,0 C 80 % 1024,3 hPa 0,0 l/m 0,7 km/h N 4,7 C 8,0 C 5,2 km/h
25.10.2014 13:00 8,1 C 82 % 1024,1 hPa 0,0 l/m 2,1 km/h N 5,2 C 8,1 C 8,9 km/h
25.10.2014 14:00 8,4 C 83 % 1023,7 hPa 0,0 l/m 2,0 km/h N 5,7 C 8,4 C 10,1 km/h
25.10.2014 15:00 8,8 C 83 % 1023,6 hPa 0,0 l/m 1,0 km/h N 6,0 C 8,8 C 6,0 km/h
25.10.2014 16:00 8,9 C 83 % 1023,6 hPa 0,0 l/m 1,6 km/h N 6,2 C 8,9 C 8,8 km/h
25.10.2014 17:00 8,4 C 84 % 1024,0 hPa 0,0 l/m 1,9 km/h N 5,8 C 8,4 C 8,9 km/h
25.10.2014 18:00 8,1 C 84 % 1024,2 hPa 0,0 l/m 0,8 km/h N 5,6 C 8,1 C 6,8 km/h
25.10.2014 19:00 7,9 C 85 % 1024,5 hPa 0,0 l/m 0,8 km/h N 5,5 C 7,9 C 7,7 km/h
25.10.2014 20:00 7,7 C 85 % 1024,7 hPa 0,0 l/m 0,2 km/h N 5,3 C 7,7 C 3,2 km/h
25.10.2014 21:00 7,5 C 85 % 1025,1 hPa 0,0 l/m 0,0 km/h N 5,1 C 7,5 C 0,8 km/h
25.10.2014 22:00 7,3 C 85 % 1025,4 hPa 0,0 l/m 0,0 km/h N 5,0 C 7,3 C 0,0 km/h
25.10.2014 23:00 7,3 C 86 % 1025,8 hPa 0,0 l/m 0,0 km/h N 5,0 C 7,3 C 0,0 km/h
26.10.2014 00:00 7,0 C 86 % 1026,1 hPa 0,0 l/m 0,0 km/h N 4,9 C 7,0 C 0,0 km/h
26.10.2014 01:00 6,9 C 86 % 1026,6 hPa 0,0 l/m 0,0 km/h N 4,7 C 6,9 C 0,0 km/h
26.10.2014 02:00 6,7 C 85 % 1027,0 hPa 0,0 l/m 0,2 km/h N 4,4 C 6,7 C 1,8 km/h
26.10.2014 03:00 6,8 C 85 % 1027,3 hPa 0,0 l/m 0,0 km/h N 4,4 C 6,8 C 0,0 km/h
26.10.2014 04:00 6,8 C 84 % 1027,4 hPa 0,0 l/m 0,0 km/h N 4,3 C 6,8 C 0,0 km/h
26.10.2014 05:00 7,1 C 84 % 1027,4 hPa 0,0 l/m 0,0 km/h N 4,6 C 7,1 C 0,0 km/h
26.10.2014 06:00 7,2 C 84 % 1027,8 hPa 0,0 l/m 0,0 km/h N 4,7 C 7,2 C 0,0 km/h
26.10.2014 07:00 7,3 C 84 % 1028,6 hPa 0,0 l/m 0,0 km/h N 4,7 C 7,3 C 0,4 km/h
26.10.2014 08:00 7,3 C 84 % 1029,0 hPa 0,0 l/m 0,8 km/h N 4,6 C 7,3 C 5,6 km/h
26.10.2014 09:00 7,5 C 84 % 1029,5 hPa 0,0 l/m 0,7 km/h N 4,9 C 7,5 C 5,6 km/h
26.10.2014 10:00 7,6 C 84 % 1029,8 hPa 0,0 l/m 0,5 km/h N 5,0 C 7,6 C 4,0 km/h
26.10.2014 11:00 7,7 C 85 % 1029,7 hPa 0,0 l/m 0,4 km/h N 5,4 C 7,7 C 2,8 km/h
26.10.2014 12:00 8,2 C 85 % 1029,6 hPa 0,0 l/m 0,3 km/h N 5,8 C 8,2 C 3,6 km/h
26.10.2014 13:00 8,5 C 86 % 1029,5 hPa 0,0 l/m 0,5 km/h N 6,3 C 8,5 C 3,6 km/h
26.10.2014 14:00 8,8 C 85 % 1029,5 hPa 0,0 l/m 0,1 km/h N 6,4 C 8,8 C 2,4 km/h
26.10.2014 15:00 8,8 C 85 % 1029,5 hPa 0,0 l/m 0,0 km/h N 6,4 C 8,8 C 0,8 km/h
26.10.2014 16:00 8,8 C 85 % 1029,5 hPa 0,0 l/m 0,0 km/h N 6,4 C 8,8 C 1,2 km/h
26.10.2014 17:00 8,5 C 85 % 1029,9 hPa 0,0 l/m 0,0 km/h N 6,2 C 8,5 C 0,8 km/h
26.10.2014 18:00 8,3 C 85 % 1030,1 hPa 0,0 l/m 0,0 km/h N 5,9 C 8,3 C 0,0 km/h
26.10.2014 19:00 8,0 C 86 % 1030,2 hPa 0,0 l/m 0,0 km/h N 5,8 C 8,0 C 0,0 km/h
26.10.2014 20:00 7,9 C 86 % 1030,4 hPa 0,0 l/m 0,0 km/h N 5,7 C 7,9 C 0,0 km/h
26.10.2014 21:00 7,9 C 85 % 1030,6 hPa 0,0 l/m 0,0 km/h N 5,6 C 7,9 C 0,0 km/h
26.10.2014 22:00 7,7 C 86 % 1030,6 hPa 0,0 l/m 0,0 km/h N 5,4 C 7,7 C 0,0 km/h
26.10.2014 23:00 7,7 C 85 % 1030,4 hPa 0,0 l/m 0,0 km/h N 5,3 C 7,7 C 0,0 km/h
Min-Datum _ 25.10.14 20.10.14 22.10.14 - 20.10.14 - 25.10.14 22.10.14 20.10.14
_ Min-Zeit 07:30 08:30 00:45 - 00:00 - 07:30 21:30 00:00
Minimum _ 3,1 C 61 % 1001,6 hPa - 0,0 km/h - 0,8 C -1,4 C 0,0 km/h
Max-Datum _ 20.10.14 25.10.14 26.10.14 22.10.14 22.10.14 - 20.10.14 20.10.14 22.10.14
_ Max-Zeit 14:15 08:15 21:00 01:00 02:00 - 14:00 14:15 02:00
Maximum _ 22,1 C 86 % 1030,7 hPa 4,2 l/m 29,9 km/h
N
- 15,0 C 22,1 C 62,8 km/h
N
Durchschnitt _ 10,3 C 79 % 1016,7 hPa #25,2 l/m 5,1 km/h N 6,8 C 9,2 C 15,6 km/h